createdAt,value
2019-01-14T00:00:50.292Z,65.01
2019-01-14T00:03:14.747Z,64.47
2019-01-14T00:05:39.158Z,63.67
2019-01-14T00:08:03.569Z,63.76
2019-01-14T00:10:27.984Z,63.72
2019-01-14T00:12:52.408Z,64.45
2019-01-14T00:15:16.863Z,64.42
2019-01-14T00:17:41.394Z,63.69
2019-01-14T00:20:08.853Z,63.72
2019-01-14T00:22:33.253Z,64.27
2019-01-14T00:24:57.670Z,64.79
2019-01-14T00:27:22.081Z,64.60
2019-01-14T00:29:46.471Z,64.70
2019-01-14T00:32:10.893Z,65.41
2019-01-14T00:34:35.290Z,64.95
2019-01-14T00:36:59.729Z,63.69
2019-01-14T00:39:24.120Z,64.43
2019-01-14T00:41:48.524Z,63.93
2019-01-14T00:44:12.943Z,64.30
2019-01-14T00:46:37.348Z,64.42
2019-01-14T00:49:01.765Z,64.36
2019-01-14T00:51:26.168Z,64.40
2019-01-14T00:53:50.573Z,64.94
2019-01-14T00:56:14.989Z,65.70
2019-01-14T00:58:39.395Z,64.97
2019-01-14T01:01:03.961Z,65.38
2019-01-14T01:03:28.362Z,64.40
2019-01-14T01:05:52.745Z,64.76
2019-01-14T01:08:17.153Z,64.59
2019-01-14T01:10:41.534Z,64.79
2019-01-14T01:13:06.008Z,64.96
2019-01-14T01:15:30.411Z,65.59
2019-01-14T01:17:54.823Z,64.85
2019-01-14T01:20:20.054Z,65.23
2019-01-14T01:22:44.619Z,64.85
2019-01-14T01:25:10.643Z,64.20
2019-01-14T01:27:35.054Z,64.15
2019-01-14T01:29:59.487Z,64.51
2019-01-14T01:32:23.872Z,64.45
2019-01-14T01:34:48.301Z,64.95
2019-01-14T01:37:12.695Z,64.50
2019-01-14T01:39:37.086Z,65.19
2019-01-14T01:42:01.493Z,64.94
2019-01-14T01:44:25.894Z,65.14
2019-01-14T01:46:50.323Z,64.49
2019-01-14T01:49:14.735Z,65.11
2019-01-14T01:51:39.457Z,65.27
2019-01-14T01:54:04.243Z,64.96
2019-01-14T01:56:28.649Z,63.79
2019-01-14T01:58:53.082Z,64.38
2019-01-14T02:01:17.492Z,64.63
2019-01-14T02:03:41.892Z,64.49
2019-01-14T02:06:06.291Z,65.04
2019-01-14T02:08:30.699Z,64.54
2019-01-14T02:10:55.138Z,65.27
2019-01-14T02:13:19.542Z,64.81
2019-01-14T02:15:43.992Z,64.68
2019-01-14T02:18:08.417Z,64.46
2019-01-14T02:20:32.815Z,64.77
2019-01-14T02:22:57.255Z,64.40
2019-01-14T02:25:21.649Z,64.02
2019-01-14T02:27:46.054Z,64.52
2019-01-14T02:30:13.886Z,64.09
2019-01-14T02:32:38.272Z,64.65
2019-01-14T02:35:02.706Z,64.63
2019-01-14T02:37:27.092Z,63.50
2019-01-14T02:39:51.489Z,63.49
2019-01-14T02:42:15.912Z,63.85
2019-01-14T02:44:40.307Z,64.20
2019-01-14T02:47:04.944Z,64.08
2019-01-14T02:49:29.352Z,64.30
2019-01-14T02:51:53.782Z,64.49
2019-01-14T02:54:18.177Z,64.08
2019-01-14T02:56:42.556Z,64.33
2019-01-14T02:59:06.959Z,64.64
2019-01-14T03:01:31.358Z,65.08
2019-01-14T03:03:55.762Z,65.63
2019-01-14T03:06:20.168Z,64.60
2019-01-14T03:08:44.543Z,64.71
2019-01-14T03:11:08.969Z,64.79
2019-01-14T03:13:33.353Z,64.55
2019-01-14T03:15:57.761Z,64.74
2019-01-14T03:18:22.150Z,65.30
2019-01-14T03:20:46.531Z,66.04
2019-01-14T03:23:10.939Z,66.08
2019-01-14T03:25:35.342Z,65.11
2019-01-14T03:27:59.852Z,66.04
2019-01-14T03:30:24.240Z,66.09
2019-01-14T03:32:48.644Z,65.24
2019-01-14T03:35:13.485Z,65.65
2019-01-14T03:37:37.975Z,64.92
2019-01-14T03:40:02.359Z,65.42
2019-01-14T03:42:26.771Z,65.73
2019-01-14T03:44:51.175Z,66.02
2019-01-14T03:47:15.603Z,65.74
2019-01-14T03:49:40.003Z,65.18
2019-01-14T03:52:04.418Z,65.71
2019-01-14T03:54:29.552Z,66.75
2019-01-14T03:56:53.950Z,65.85
2019-01-14T03:59:18.338Z,66.16
2019-01-14T04:01:42.800Z,66.43
2019-01-14T04:04:07.255Z,67.04
2019-01-14T04:06:31.666Z,66.90
2019-01-14T04:08:56.083Z,67.33
2019-01-14T04:11:20.457Z,67.71
2019-01-14T04:13:44.898Z,68.02
2019-01-14T04:16:09.297Z,68.11
2019-01-14T04:18:33.701Z,68.43
2019-01-14T04:20:58.092Z,68.54
2019-01-14T04:23:22.511Z,68.58
2019-01-14T04:25:46.913Z,68.66
2019-01-14T04:28:11.314Z,69.16
2019-01-14T04:30:35.723Z,69.28
2019-01-14T04:33:00.105Z,68.87
2019-01-14T04:35:24.598Z,68.68
2019-01-14T04:37:49.082Z,68.76
2019-01-14T04:40:14.904Z,68.23
2019-01-14T04:42:39.304Z,68.29
2019-01-14T04:45:04.743Z,68.39
2019-01-14T04:47:29.163Z,68.37
2019-01-14T04:49:53.580Z,68.43
2019-01-14T04:52:17.980Z,68.59
2019-01-14T04:54:42.413Z,68.64
2019-01-14T04:57:06.814Z,69.47
2019-01-14T04:59:31.229Z,70.63
2019-01-14T05:01:55.627Z,70.28
2019-01-14T05:04:20.044Z,70.20
2019-01-14T05:06:44.434Z,70.19
2019-01-14T05:09:08.906Z,68.89
2019-01-14T05:11:33.325Z,68.49
2019-01-14T05:13:57.725Z,69.64
2019-01-14T05:16:22.151Z,70.23
2019-01-14T05:18:46.558Z,70.18
2019-01-14T05:21:11.010Z,69.46
2019-01-14T05:23:35.400Z,71.04
2019-01-14T05:25:59.788Z,71.35
2019-01-14T05:28:24.210Z,72.20
2019-01-14T05:30:48.602Z,72.59
2019-01-14T05:33:13.000Z,72.04
2019-01-14T05:35:37.399Z,71.78
2019-01-14T05:38:01.821Z,72.04
2019-01-14T05:40:26.578Z,72.35
2019-01-14T05:42:51.072Z,71.95
2019-01-14T05:45:15.600Z,70.98
2019-01-14T05:47:40.003Z,70.32
2019-01-14T05:50:07.967Z,68.41
2019-01-14T05:52:32.364Z,68.16
2019-01-14T05:54:56.781Z,66.97
2019-01-14T05:57:21.196Z,67.50
2019-01-14T05:59:45.579Z,66.76
2019-01-14T06:02:09.994Z,67.16
2019-01-14T06:04:34.391Z,67.22
2019-01-14T06:06:58.803Z,67.32
2019-01-14T06:09:23.211Z,67.04
2019-01-14T06:11:47.623Z,66.96
2019-01-14T06:14:12.036Z,67.13
2019-01-14T06:16:36.422Z,67.35
2019-01-14T06:19:00.856Z,67.19
2019-01-14T06:21:25.244Z,67.15
2019-01-14T06:23:49.636Z,66.83
2019-01-14T06:26:14.059Z,67.46
2019-01-14T06:28:38.476Z,67.34
2019-01-14T06:31:02.846Z,66.83
2019-01-14T06:33:27.260Z,66.99
2019-01-14T06:35:51.642Z,67.41
2019-01-14T06:38:16.119Z,66.05
2019-01-14T06:40:40.593Z,67.32
2019-01-14T06:43:05.076Z,67.63
2019-01-14T06:45:29.491Z,67.99
2019-01-14T06:47:53.875Z,68.34
2019-01-14T06:50:19.746Z,68.33
2019-01-14T06:52:44.156Z,68.18
2019-01-14T06:55:08.878Z,68.36
2019-01-14T06:57:33.290Z,67.58
2019-01-14T06:59:57.671Z,68.97
2019-01-14T07:02:22.102Z,70.03
2019-01-14T07:04:46.480Z,70.69
2019-01-14T07:07:10.877Z,70.27
2019-01-14T07:09:35.289Z,69.98
2019-01-14T07:11:59.857Z,70.27
2019-01-14T07:14:24.249Z,69.68
2019-01-14T07:16:48.625Z,70.41
2019-01-14T07:19:13.049Z,70.06
2019-01-14T07:21:37.427Z,69.86
2019-01-14T07:24:01.826Z,68.94
2019-01-14T07:26:26.236Z,69.48
2019-01-14T07:28:50.613Z,70.58
2019-01-14T07:31:15.049Z,71.14
2019-01-14T07:33:39.450Z,70.19
2019-01-14T07:36:04.080Z,70.22
2019-01-14T07:38:28.476Z,69.67
2019-01-14T07:40:52.871Z,69.66
2019-01-14T07:43:17.294Z,69.27
2019-01-14T07:45:41.682Z,69.79
2019-01-14T07:48:06.158Z,70.09
2019-01-14T07:50:30.565Z,70.00
2019-01-14T07:52:54.946Z,70.68
2019-01-14T07:55:19.356Z,69.69
2019-01-14T07:57:43.774Z,69.78
2019-01-14T08:00:22.846Z,69.08
2019-01-14T08:02:47.250Z,68.64
2019-01-14T08:05:11.772Z,69.70
2019-01-14T08:07:36.182Z,69.84
2019-01-14T08:10:00.575Z,69.42
2019-01-14T08:12:24.994Z,69.22
2019-01-14T08:14:49.391Z,68.88
2019-01-14T08:17:13.764Z,68.70
2019-01-14T08:19:38.186Z,68.59
2019-01-14T08:22:02.582Z,68.20
2019-01-14T08:24:26.999Z,68.27
2019-01-14T08:26:51.396Z,65.96
2019-01-14T08:29:15.811Z,65.06
2019-01-14T08:31:40.200Z,64.21
2019-01-14T08:34:04.588Z,64.42
2019-01-14T08:36:29.001Z,63.60
2019-01-14T08:38:53.390Z,62.80
2019-01-14T08:41:18.213Z,62.93
2019-01-14T08:43:43.161Z,62.69
2019-01-14T08:46:08.028Z,61.72
2019-01-14T08:48:32.460Z,61.65
2019-01-14T08:50:56.843Z,60.94
2019-01-14T08:53:21.240Z,60.24
2019-01-14T08:55:45.646Z,59.83
2019-01-14T08:58:10.021Z,59.61
2019-01-14T09:00:34.437Z,60.18
2019-01-14T09:02:58.823Z,59.47
2019-01-14T09:05:23.286Z,60.17
2019-01-14T09:07:47.688Z,59.61
2019-01-14T09:10:15.229Z,59.35
2019-01-14T09:12:39.621Z,60.21
2019-01-14T09:15:05.639Z,59.52
2019-01-14T09:17:30.065Z,59.64
2019-01-14T09:19:54.458Z,59.83
2019-01-14T09:22:18.867Z,60.59
2019-01-14T09:24:43.272Z,61.13
2019-01-14T09:27:07.659Z,61.38
2019-01-14T09:29:32.067Z,60.85
2019-01-14T09:31:57.327Z,61.73
2019-01-14T09:34:21.889Z,61.14
2019-01-14T09:36:46.297Z,60.66
2019-01-14T09:39:10.759Z,61.51
2019-01-14T09:41:35.170Z,61.45
2019-01-14T09:43:59.611Z,60.35
2019-01-14T09:46:24.000Z,61.25
2019-01-14T09:48:48.427Z,62.47
2019-01-14T09:51:12.908Z,61.64
2019-01-14T09:53:37.316Z,60.33
2019-01-14T09:56:01.708Z,59.99
2019-01-14T09:58:26.116Z,61.73
2019-01-14T10:00:50.493Z,60.20
2019-01-14T10:03:14.911Z,61.07
2019-01-14T10:05:39.314Z,61.12
2019-01-14T10:08:03.761Z,60.84
2019-01-14T10:10:28.165Z,61.12
2019-01-14T10:12:52.559Z,62.62
2019-01-14T10:15:19.168Z,65.39
2019-01-14T10:17:43.750Z,64.06
2019-01-14T10:20:09.789Z,66.23
2019-01-14T10:22:34.256Z,64.58
2019-01-14T10:24:58.648Z,64.51
2019-01-14T10:27:23.058Z,64.15
2019-01-14T10:29:47.453Z,64.91
2019-01-14T10:32:11.901Z,64.95
2019-01-14T10:34:36.272Z,63.22
2019-01-14T10:37:00.665Z,63.54
2019-01-14T10:39:25.099Z,62.95
2019-01-14T10:41:49.479Z,63.86
2019-01-14T10:44:13.916Z,64.18
2019-01-14T10:46:38.300Z,64.22
2019-01-14T10:49:06.628Z,63.94
2019-01-14T10:51:28.814Z,63.96
2019-01-14T10:53:53.202Z,63.56
2019-01-14T10:56:17.608Z,68.84
2019-01-14T10:58:42.037Z,69.70
2019-01-14T11:01:06.468Z,72.54
2019-01-14T11:03:30.873Z,72.72
2019-01-14T11:05:55.263Z,70.98
2019-01-14T11:08:19.675Z,72.11
2019-01-14T11:10:44.057Z,71.44
2019-01-14T11:13:08.468Z,70.52
2019-01-14T11:15:32.867Z,68.95
2019-01-14T11:17:57.290Z,67.59
2019-01-14T11:20:24.222Z,67.28
2019-01-14T11:22:48.845Z,66.91
2019-01-14T11:25:13.582Z,63.49
2019-01-14T11:27:38.043Z,64.38
2019-01-14T11:30:02.467Z,64.71
2019-01-14T11:32:26.862Z,63.85
2019-01-14T11:34:51.256Z,66.18
2019-01-14T11:37:15.772Z,67.76
2019-01-14T11:39:40.174Z,67.13
2019-01-14T11:42:04.587Z,66.59
2019-01-14T11:44:28.998Z,66.74
2019-01-14T11:46:53.446Z,68.59
2019-01-14T11:49:17.845Z,68.78
2019-01-14T11:51:42.264Z,69.08
2019-01-14T11:54:06.671Z,71.38
2019-01-14T11:56:31.087Z,72.93
2019-01-14T11:58:55.466Z,71.18
2019-01-14T12:01:19.851Z,70.33
2019-01-14T12:03:44.275Z,69.88
2019-01-14T12:06:08.658Z,69.74
2019-01-14T12:08:33.075Z,69.98
2019-01-14T12:10:57.461Z,70.76
2019-01-14T12:13:21.853Z,70.00
2019-01-14T12:15:46.263Z,66.36
2019-01-14T12:18:10.649Z,64.47
2019-01-14T12:20:35.056Z,67.00
2019-01-14T12:22:59.522Z,66.76
2019-01-14T12:25:23.939Z,65.59
2019-01-14T12:27:48.391Z,64.32
2019-01-14T12:30:18.740Z,65.64
2019-01-14T12:32:43.155Z,64.34
2019-01-14T12:35:07.607Z,63.72
2019-01-14T12:37:32.077Z,64.11
2019-01-14T12:39:56.465Z,60.88
2019-01-14T12:42:20.855Z,57.03
2019-01-14T12:44:45.258Z,59.91
2019-01-14T12:47:09.640Z,60.62
2019-01-14T12:49:34.050Z,61.93
2019-01-14T12:51:58.440Z,61.43
2019-01-14T12:54:22.836Z,60.45
2019-01-14T12:56:47.232Z,61.58
2019-01-14T12:59:11.612Z,62.21
2019-01-14T13:01:36.014Z,60.80
2019-01-14T13:04:00.395Z,60.92
2019-01-14T13:06:24.885Z,60.95
2019-01-14T13:08:49.238Z,61.25
2019-01-14T13:11:13.633Z,60.39
2019-01-14T13:13:38.051Z,60.02
2019-01-14T13:16:02.495Z,60.21
2019-01-14T13:18:26.928Z,60.23
2019-01-14T13:20:51.324Z,58.62
2019-01-14T13:23:15.733Z,59.36
2019-01-14T13:25:40.174Z,59.22
2019-01-14T13:28:04.994Z,61.08
2019-01-14T13:30:29.837Z,59.23
2019-01-14T13:32:54.762Z,59.66
2019-01-14T13:35:19.187Z,59.36
2019-01-14T13:37:43.649Z,58.02
2019-01-14T13:40:12.538Z,56.53
2019-01-14T13:42:36.951Z,54.87
2019-01-14T13:45:01.344Z,55.79
2019-01-14T13:47:26.119Z,56.52
2019-01-14T13:49:50.530Z,55.65
2019-01-14T13:52:14.929Z,54.90
2019-01-14T13:54:39.346Z,54.73
2019-01-14T13:57:03.718Z,55.83
2019-01-14T13:59:28.099Z,58.86
2019-01-14T14:01:52.516Z,57.56
2019-01-14T14:04:16.903Z,58.66
2019-01-14T14:06:41.323Z,58.78
2019-01-14T14:09:08.521Z,57.11
2019-01-14T14:11:32.908Z,56.76
2019-01-14T14:13:58.200Z,56.85
2019-01-14T14:16:22.590Z,56.05
2019-01-14T14:18:46.985Z,54.10
2019-01-14T14:21:11.383Z,55.17
2019-01-14T14:23:35.785Z,53.78
2019-01-14T14:26:00.280Z,54.46
2019-01-14T14:28:24.669Z,56.10
2019-01-14T14:30:49.044Z,55.45
2019-01-14T14:33:13.527Z,55.95
2019-01-14T14:35:37.984Z,56.34
2019-01-14T14:38:02.604Z,56.21
2019-01-14T14:40:26.995Z,55.30
2019-01-14T14:42:51.413Z,56.35
2019-01-14T14:45:16.289Z,57.09
2019-01-14T14:47:40.681Z,56.17
2019-01-14T14:50:11.150Z,57.44
2019-01-14T14:52:35.517Z,56.99
2019-01-14T14:54:59.910Z,56.16
2019-01-14T14:57:24.364Z,57.00
2019-01-14T14:59:48.779Z,57.99
2019-01-14T15:02:13.216Z,58.59
2019-01-14T15:04:37.614Z,57.74
2019-01-14T15:07:02.000Z,58.04
2019-01-14T15:09:31.622Z,57.64
2019-01-14T15:11:52.501Z,58.95
2019-01-14T15:14:16.933Z,59.01
2019-01-14T15:16:41.325Z,59.63
2019-01-14T15:19:05.783Z,60.97
2019-01-14T15:21:30.210Z,62.49
2019-01-14T15:23:54.596Z,63.34
2019-01-14T15:26:19.035Z,63.30
2019-01-14T15:28:43.445Z,63.45
2019-01-14T15:31:07.847Z,64.51
2019-01-14T15:33:32.267Z,64.81
2019-01-14T15:35:56.677Z,64.81
2019-01-14T15:38:21.092Z,64.16
2019-01-14T15:40:45.570Z,64.98
2019-01-14T15:43:10.024Z,65.38
2019-01-14T15:45:34.481Z,66.93
2019-01-14T15:47:58.864Z,67.45
2019-01-14T15:50:23.285Z,67.85
2019-01-14T15:52:47.676Z,68.17
2019-01-14T15:55:25.380Z,67.61
2019-01-14T15:57:51.469Z,67.31
2019-01-14T16:00:19.964Z,67.71
2019-01-14T16:02:44.629Z,67.87
2019-01-14T16:05:09.268Z,67.57
2019-01-14T16:07:33.713Z,67.84
2019-01-14T16:09:58.108Z,67.56
2019-01-14T16:12:22.501Z,67.93
2019-01-14T16:14:46.943Z,67.57
2019-01-14T16:17:11.338Z,67.80
2019-01-14T16:19:35.772Z,68.41
2019-01-14T16:22:00.185Z,68.41
2019-01-14T16:24:24.584Z,67.93
2019-01-14T16:26:49.008Z,68.36
2019-01-14T16:29:13.409Z,68.27
2019-01-14T16:31:37.831Z,68.60
2019-01-14T16:34:02.238Z,68.29
2019-01-14T16:36:26.658Z,68.92
2019-01-14T16:38:51.086Z,69.26
2019-01-14T16:41:15.503Z,69.01
2019-01-14T16:43:39.938Z,69.55
2019-01-14T16:46:04.389Z,69.32
2019-01-14T16:48:28.816Z,69.41
2019-01-14T16:50:53.248Z,69.63
2019-01-14T16:53:17.652Z,70.17
2019-01-14T16:55:43.750Z,70.33
2019-01-14T16:58:08.169Z,70.34
2019-01-14T17:00:32.558Z,70.14
2019-01-14T17:02:57.016Z,69.92
2019-01-14T17:05:24.163Z,70.27
2019-01-14T17:07:48.555Z,69.82
2019-01-14T17:10:14.910Z,70.47
2019-01-14T17:12:39.293Z,70.78
2019-01-14T17:15:04.358Z,70.89
2019-01-14T17:17:33.212Z,70.46
2019-01-14T17:19:57.712Z,70.38
2019-01-14T17:22:22.114Z,70.53
2019-01-14T17:24:46.559Z,70.59
2019-01-14T17:27:11.014Z,70.30
2019-01-14T17:29:35.435Z,70.42
2019-01-14T17:31:59.837Z,70.40
2019-01-14T17:34:24.258Z,71.04
2019-01-14T17:36:48.680Z,71.02
2019-01-14T17:39:13.083Z,71.02
2019-01-14T17:41:38.227Z,71.66
2019-01-14T17:44:02.608Z,71.63
2019-01-14T17:46:27.075Z,71.83
2019-01-14T17:48:51.490Z,71.75
2019-01-14T17:51:17.537Z,72.31
2019-01-14T17:53:41.957Z,72.29
2019-01-14T17:56:06.382Z,72.34
2019-01-14T17:58:30.817Z,72.85
2019-01-14T18:00:55.234Z,73.34
2019-01-14T18:03:19.647Z,73.38
2019-01-14T18:05:44.067Z,73.94
2019-01-14T18:08:08.471Z,74.18
2019-01-14T18:10:39.717Z,74.18
2019-01-14T18:12:59.003Z,74.12
2019-01-14T18:15:23.449Z,73.90
2019-01-14T18:17:47.842Z,74.29
2019-01-14T18:20:14.899Z,73.83
2019-01-14T18:22:39.335Z,73.69
2019-01-14T18:25:04.792Z,73.67
2019-01-14T18:27:29.213Z,73.96
2019-01-14T18:29:53.614Z,74.14
2019-01-14T18:32:18.045Z,74.63
2019-01-14T18:34:42.470Z,74.52
2019-01-14T18:37:06.855Z,74.83
2019-01-14T18:39:31.301Z,74.91
2019-01-14T18:41:55.693Z,75.10
2019-01-14T18:44:20.091Z,75.17
2019-01-14T18:46:44.542Z,75.36
2019-01-14T18:49:08.938Z,74.93
2019-01-14T18:51:33.380Z,75.50
2019-01-14T18:53:57.783Z,75.14
2019-01-14T18:56:22.239Z,75.49
2019-01-14T18:58:46.645Z,75.77
2019-01-14T19:01:11.047Z,75.94
2019-01-14T19:03:35.484Z,75.79
2019-01-14T19:05:59.900Z,76.08
2019-01-14T19:08:24.347Z,76.49
2019-01-14T19:10:54.303Z,76.19
2019-01-14T19:13:14.860Z,76.43
2019-01-14T19:15:39.361Z,76.72
2019-01-14T19:18:03.841Z,76.76
2019-01-14T19:20:28.431Z,76.84
2019-01-14T19:22:52.892Z,77.46
2019-01-14T19:25:17.304Z,77.47
2019-01-14T19:27:41.730Z,76.88
2019-01-14T19:30:09.194Z,76.91
2019-01-14T19:32:38.322Z,77.09
2019-01-14T19:34:59.687Z,75.83
2019-01-14T19:37:24.086Z,75.74
2019-01-14T19:39:48.493Z,75.34
2019-01-14T19:42:12.941Z,75.57
2019-01-14T19:44:37.338Z,76.01
2019-01-14T19:47:01.755Z,76.58
2019-01-14T19:49:26.199Z,76.94
2019-01-14T19:51:50.578Z,77.32
2019-01-14T19:54:14.988Z,77.55
2019-01-14T19:56:39.510Z,77.57
2019-01-14T19:59:04.205Z,78.09
2019-01-14T20:01:28.624Z,78.27
2019-01-14T20:03:53.025Z,78.62
2019-01-14T20:06:17.527Z,78.58
2019-01-14T20:08:41.961Z,78.61
2019-01-14T20:11:09.375Z,78.58
2019-01-14T20:13:32.525Z,79.01
2019-01-14T20:15:56.968Z,79.02
2019-01-14T20:18:21.473Z,79.01
2019-01-14T20:20:45.883Z,79.02
2019-01-14T20:23:10.305Z,79.00
2019-01-14T20:25:34.721Z,78.80
2019-01-14T20:27:59.111Z,78.59
2019-01-14T20:30:23.775Z,78.88
2019-01-14T20:32:48.176Z,78.75
2019-01-14T20:35:12.637Z,78.90
2019-01-14T20:37:37.042Z,78.66
2019-01-14T20:40:01.454Z,78.34
2019-01-14T20:42:25.901Z,78.53
2019-01-14T20:44:50.340Z,78.21
2019-01-14T20:47:14.748Z,78.32
2019-01-14T20:49:39.163Z,78.07
2019-01-14T20:52:03.583Z,78.44
2019-01-14T20:54:28.023Z,77.89
2019-01-14T20:56:52.415Z,78.04
2019-01-14T20:59:16.830Z,76.98
2019-01-14T21:01:41.274Z,76.60
2019-01-14T21:04:05.678Z,77.29
2019-01-14T21:06:30.137Z,77.42
2019-01-14T21:08:54.558Z,77.60
2019-01-14T21:11:23.920Z,77.47
2019-01-14T21:13:45.179Z,77.77
2019-01-14T21:16:09.566Z,77.88
2019-01-14T21:18:34.029Z,78.06
2019-01-14T21:20:58.425Z,77.90
2019-01-14T21:23:22.842Z,77.97
2019-01-14T21:25:47.263Z,78.01
2019-01-14T21:28:11.685Z,78.43
2019-01-14T21:30:36.113Z,78.74
2019-01-14T21:33:00.529Z,78.67
2019-01-14T21:35:24.985Z,78.79
2019-01-14T21:37:50.110Z,78.76
2019-01-14T21:40:14.947Z,79.10
2019-01-14T21:42:39.383Z,79.04
2019-01-14T21:45:04.914Z,79.30
2019-01-14T21:47:32.697Z,79.07
2019-01-14T21:49:55.480Z,78.98
2019-01-14T21:52:19.886Z,78.93
2019-01-14T21:54:44.294Z,78.78
2019-01-14T21:57:08.724Z,78.69
2019-01-14T21:59:33.115Z,78.79
2019-01-14T22:01:57.512Z,78.74
2019-01-14T22:04:21.939Z,79.02
2019-01-14T22:06:46.350Z,79.05
2019-01-14T22:09:10.943Z,79.06
2019-01-14T22:11:38.756Z,79.01
2019-01-14T22:14:01.525Z,78.71
2019-01-14T22:16:25.929Z,79.07
2019-01-14T22:18:50.333Z,79.18
2019-01-14T22:21:14.747Z,79.12
2019-01-14T22:23:39.142Z,78.92
2019-01-14T22:26:03.536Z,78.90
2019-01-14T22:28:27.960Z,78.80
2019-01-14T22:30:52.352Z,78.70
2019-01-14T22:33:16.793Z,78.59
2019-01-14T22:35:41.185Z,78.62
2019-01-14T22:38:05.597Z,78.61
2019-01-14T22:40:30.026Z,78.33
2019-01-14T22:42:54.500Z,78.31
2019-01-14T22:45:18.907Z,77.98
2019-01-14T22:47:43.292Z,78.12
2019-01-14T22:50:16.261Z,78.23
2019-01-14T22:52:40.661Z,78.07
2019-01-14T22:55:07.212Z,77.80
2019-01-14T22:57:31.624Z,77.38
2019-01-14T22:59:56.016Z,77.85
2019-01-14T23:02:20.431Z,77.67
2019-01-14T23:04:44.858Z,77.81
2019-01-14T23:07:09.239Z,78.38
2019-01-14T23:09:33.684Z,78.74
2019-01-14T23:11:58.065Z,78.46
2019-01-14T23:14:22.453Z,78.65
2019-01-14T23:16:46.875Z,78.82
2019-01-14T23:19:11.342Z,78.69
2019-01-14T23:21:35.769Z,79.04
2019-01-14T23:24:00.224Z,78.91
2019-01-14T23:26:24.621Z,79.00
2019-01-14T23:28:49.048Z,78.84
2019-01-14T23:31:13.559Z,78.04
2019-01-14T23:33:37.973Z,78.56
2019-01-14T23:36:02.372Z,78.44
2019-01-14T23:38:26.781Z,77.68
2019-01-14T23:40:51.183Z,77.26
2019-01-14T23:43:15.581Z,77.99
2019-01-14T23:45:39.981Z,78.34
2019-01-14T23:48:04.610Z,78.65
2019-01-14T23:50:29.047Z,78.98
2019-01-14T23:52:53.473Z,78.60
2019-01-14T23:55:17.889Z,79.16
2019-01-14T23:57:42.306Z,79.45
